Aroma, Missouri
Current Conditions -  °F | °C
As of 9:55 AM on Saturday 25 Oct 2014 (Local Time) from KHFJ Reporting Station
Clear Clear  
Wind Chill: 66°   Ceiling: Unl
Heat Index: 66°   Visibility: 10mi
Dew Point: 61°   Wind: 7mph
Humidity: 83%   Direction: 230°SW
Pressure: 30.12"   Gusts: NA
Location:  36.8998°N, 94.263°W
Report Text: KHFJ 251455Z AUTO 23006KT 10SM CLR 19/16 A3012 RMK AO2
Loading
Personal Weather Stations






























Interactive Weather Map
Tropical Storm Tracking
New forecast layout! Learn more

10-Day Weather Forecast

Advertisements
Track Severe Weather on mobile